Time;durP1;ratioP1;P1;durP2;ratioP2;P2;SDS_P1;SDS_P2;PMS_P1;PMS_P2;Temp;Humidity;BMP_temperature;BMP_pressure;BME280_temperature;BME280_humidity;BME280_pressure;Samples;Min_cycle;Max_cycle;Signal;HPM_P1;HPM_P2
2023/12/23 00:02:10;;;;;;;9.58;2.60;;;;;;;0.85;82.27;97016.34;1685313;85;25625;-62
2023/12/23 00:04:38;;;;;;;8.43;2.58;;;;;;;0.82;82.30;97015.66;1686028;85;25524;-59
2023/12/23 00:07:07;;;;;;;10.07;2.20;;;;;;;0.80;81.73;97012.55;1686200;84;25592;-61
2023/12/23 00:09:35;;;;;;;9.25;3.05;;;;;;;0.80;82.08;97016.53;1685874;84;28423;-60
2023/12/23 00:12:07;;;;;;;14.40;3.08;;;;;;;0.81;82.33;97033.27;1685186;85;25747;-58
2023/12/23 00:14:35;;;;;;;15.75;3.05;;;;;;;0.82;82.04;97040.13;1685955;84;25607;-59
2023/12/23 00:17:03;;;;;;;10.82;2.72;;;;;;;0.82;82.18;97033.48;1685781;85;26302;-58
2023/12/23 00:19:31;;;;;;;13.37;2.57;;;;;;;0.81;81.93;97036.70;1662303;85;25520;-60
2023/12/23 00:21:58;;;;;;;11.40;2.87;;;;;;;0.82;81.85;97046.25;1694864;83;27333;-60
2023/12/23 00:24:26;;;;;;;7.72;2.37;;;;;;;0.83;82.09;97044.36;1668959;84;25653;-60
2023/12/23 00:26:57;;;;;;;8.73;2.85;;;;;;;0.84;81.70;97044.60;1697112;84;25547;-60
2023/12/23 00:29:25;;;;;;;7.67;2.65;;;;;;;0.85;81.58;97042.95;1696799;84;25657;-59
2023/12/23 00:31:51;;;;;;;6.28;2.10;;;;;;;0.86;81.99;97049.05;1669344;84;25547;-60
2023/12/23 00:34:19;;;;;;;8.33;2.27;;;;;;;0.86;81.58;97040.50;1696972;84;28341;-59
2023/12/23 00:36:47;;;;;;;15.23;2.92;;;;;;;0.87;81.58;97047.92;1696905;84;25711;-59
2023/12/23 00:39:15;;;;;;;7.83;2.52;;;;;;;0.87;81.44;97054.58;1713688;83;25713;-60
2023/12/23 00:41:43;;;;;;;9.33;2.58;;;;;;;0.88;81.44;97040.17;1728960;83;25564;-60
2023/12/23 00:44:12;;;;;;;8.35;2.10;;;;;;;0.87;80.81;97042.06;1729012;83;25483;-62
2023/12/23 00:46:40;;;;;;;9.93;2.60;;;;;;;0.89;80.90;97042.52;1728989;83;27890;-60
2023/12/23 00:49:08;;;;;;;9.25;2.42;;;;;;;0.90;80.04;97048.08;1728904;83;25501;-60
2023/12/23 00:51:36;;;;;;;7.58;2.22;;;;;;;0.91;80.01;97062.92;1729003;83;25433;-60
2023/12/23 00:54:04;;;;;;;7.35;2.05;;;;;;;0.93;79.38;97059.38;1728961;83;25660;-60
2023/12/23 00:56:34;;;;;;;11.22;2.58;;;;;;;0.96;80.14;97069.17;1728974;83;25451;-60
2023/12/23 00:59:02;;;;;;;11.30;2.52;;;;;;;0.95;80.04;97075.03;1729027;83;27918;-60
2023/12/23 01:01:29;;;;;;;8.98;2.27;;;;;;;0.97;79.69;97075.51;1728885;83;26005;-62
2023/12/23 01:03:56;;;;;;;7.17;2.05;;;;;;;0.98;79.08;97072.28;1728932;83;25662;-61
2023/12/23 01:06:26;;;;;;;9.53;2.10;;;;;;;1.00;79.68;97079.39;1728909;83;26098;-59
2023/12/23 01:08:54;;;;;;;9.15;2.47;;;;;;;0.99;79.42;97068.50;1728980;83;25748;-60
2023/12/23 01:11:22;;;;;;;8.95;2.10;;;;;;;1.01;79.39;97070.31;1728937;83;28370;-60
2023/12/23 01:13:49;;;;;;;8.88;3.65;;;;;;;1.01;79.08;97078.30;1701838;83;25502;-60
2023/12/23 01:16:18;;;;;;;9.60;2.77;;;;;;;1.01;79.38;97081.73;1729062;83;25437;-60
2023/12/23 01:18:48;;;;;;;9.10;2.52;;;;;;;1.00;78.89;97073.50;1728900;83;25539;-60
2023/12/23 01:21:20;;;;;;;5.83;2.10;;;;;;;1.01;78.68;97080.40;1723278;83;25638;-60
2023/12/23 01:23:47;;;;;;;4.95;2.20;;;;;;;1.01;78.71;97087.05;1672209;85;27527;-60
2023/12/23 01:26:15;;;;;;;9.88;2.22;;;;;;;1.01;78.78;97084.39;1712789;83;25756;-60
2023/12/23 01:28:43;;;;;;;15.43;2.47;;;;;;;1.00;78.14;97077.50;1690208;83;25641;-60
2023/12/23 01:31:11;;;;;;;5.47;2.10;;;;;;;1.00;77.73;97093.47;1712838;83;25976;-60
2023/12/23 01:33:40;;;;;;;7.97;2.10;;;;;;;1.00;77.47;97086.81;1713048;83;26117;-60
2023/12/23 01:36:08;;;;;;;8.55;1.92;;;;;;;1.01;77.00;97100.36;1712914;83;28331;-60
2023/12/23 01:38:37;;;;;;;7.83;2.00;;;;;;;0.99;77.20;97099.91;1712928;83;25757;-59
2023/12/23 01:41:06;;;;;;;7.78;2.40;;;;;;;0.99;77.22;97102.58;1712819;83;25577;-60
2023/12/23 01:43:34;;;;;;;9.30;2.22;;;;;;;1.01;77.48;97112.90;1712806;83;25455;-60
2023/12/23 01:46:03;;;;;;;6.40;1.70;;;;;;;0.99;76.91;97107.09;1712880;83;25607;-59
2023/12/23 01:48:35;;;;;;;7.75;2.02;;;;;;;0.97;76.43;97103.45;1712926;83;27337;-60
2023/12/23 01:51:04;;;;;;;9.33;2.00;;;;;;;0.97;76.50;97114.10;1712843;83;25663;-60
2023/12/23 01:53:33;;;;;;;8.70;1.92;;;;;;;0.94;75.40;97101.44;1712996;83;25596;-60
2023/12/23 01:56:02;;;;;;;5.37;1.80;;;;;;;0.96;76.19;97106.44;1712950;83;25676;-60
2023/12/23 01:58:28;;;;;;;9.45;3.08;;;;;;;0.94;76.38;97128.05;1712905;83;25429;-59
2023/12/23 02:00:56;;;;;;;3.05;1.52;;;;;;;0.92;75.70;97123.05;1712843;83;28369;-59
2023/12/23 02:03:26;;;;;;;7.25;2.12;;;;;;;0.91;76.29;97133.45;1712764;83;25995;-59
2023/12/23 02:05:54;;;;;;;9.20;1.90;;;;;;;0.91;76.37;97138.77;1712886;83;25639;-60
2023/12/23 02:08:23;;;;;;;9.35;2.25;;;;;;;0.91;75.67;97141.43;1712927;83;26286;-60
2023/12/23 02:11:05;;;;;;;5.40;1.92;;;;;;;0.89;76.16;97143.64;1712841;83;25577;-61
2023/12/23 02:13:46;;;;;;;11.57;2.30;;;;;;;0.88;76.48;97145.29;1712939;83;27398;-59
2023/12/23 02:16:14;;;;;;;10.55;2.65;;;;;;;0.88;76.62;97143.95;1712749;83;25422;-60
2023/12/23 02:18:43;;;;;;;7.25;1.90;;;;;;;0.86;76.67;97154.92;1712798;83;25414;-59
2023/12/23 02:21:10;;;;;;;10.10;2.85;;;;;;;0.84;75.93;97133.19;1710350;83;26519;-60
2023/12/23 02:23:38;;;;;;;5.58;2.02;;;;;;;0.81;76.17;97147.69;1653461;86;25583;-59
2023/12/23 02:26:09;;;;;;;8.63;2.05;;;;;;;0.78;75.76;97131.02;1676266;84;28229;-60
2023/12/23 02:28:39;;;;;;;10.70;1.85;;;;;;;0.74;75.22;97151.62;1628737;86;25442;-61
2023/12/23 02:31:09;;;;;;;8.70;1.82;;;;;;;0.73;76.02;97150.08;1678579;84;25470;-60
2023/12/23 02:33:38;;;;;;;8.90;2.02;;;;;;;0.73;76.39;97151.41;1702922;84;26217;-60
2023/12/23 02:36:07;;;;;;;6.65;2.08;;;;;;;0.73;76.45;97154.59;1678496;84;25513;-59
2023/12/23 02:38:35;;;;;;;8.50;1.82;;;;;;;0.72;76.43;97154.38;1678641;84;33136;-60
2023/12/23 02:41:04;;;;;;;9.83;2.25;;;;;;;0.72;76.47;97150.39;1701900;84;25666;-58
2023/12/23 02:43:32;;;;;;;5.45;1.90;;;;;;;0.71;76.17;97164.23;1703028;84;25466;-59
2023/12/23 02:46:01;;;;;;;5.75;1.87;;;;;;;0.72;76.36;97163.14;1702869;84;25638;-60
2023/12/23 02:48:29;;;;;;;8.70;2.07;;;;;;;0.71;76.08;97164.78;1703186;84;25626;-59
2023/12/23 02:50:57;;;;;;;9.95;2.08;;;;;;;0.69;76.42;97175.74;1702038;84;26893;-59
2023/12/23 02:53:24;;;;;;;9.13;1.90;;;;;;;0.69;76.51;97179.73;1702849;84;25660;-59
2023/12/23 02:55:50;;;;;;;6.92;1.85;;;;;;;0.71;76.33;97194.05;1702875;84;25550;-60
2023/12/23 02:58:18;;;;;;;10.45;2.22;;;;;;;0.71;76.13;97184.73;1678427;84;25964;-60
2023/12/23 03:00:45;;;;;;;6.17;1.83;;;;;;;0.71;76.33;97183.41;1703156;84;25601;-60
2023/12/23 03:03:14;;;;;;;5.17;2.15;;;;;;;0.71;76.45;97184.18;1702848;84;28322;-61
2023/12/23 03:05:42;;;;;;;11.23;2.30;;;;;;;0.72;76.06;97186.31;1703043;84;25661;-61
2023/12/23 03:08:11;;;;;;;9.05;2.12;;;;;;;0.71;75.48;97185.51;1703009;84;25665;-60
2023/12/23 03:10:39;;;;;;;3.83;1.77;;;;;;;0.70;75.86;97186.63;1702850;84;26346;-59
2023/12/23 03:13:07;;;;;;;7.17;2.50;;;;;;;0.69;75.75;97189.05;1702002;84;25465;-65
2023/12/23 03:15:35;;;;;;;5.72;1.70;;;;;;;0.70;76.02;97205.25;1702807;84;27234;-61
2023/12/23 03:18:04;;;;;;;6.53;1.72;;;;;;;0.70;75.66;97207.14;1702721;84;25427;-60
2023/12/23 03:20:32;;;;;;;11.18;2.10;;;;;;;0.70;74.96;97201.26;1703006;84;25575;-60
2023/12/23 03:22:59;;;;;;;7.28;1.70;;;;;;;0.70;75.40;97207.91;1698877;84;25637;-59
2023/12/23 03:25:25;;;;;;;8.33;1.77;;;;;;;0.72;75.57;97228.88;1680896;85;25456;-59
2023/12/23 03:27:52;;;;;;;5.28;2.00;;;;;;;0.73;75.36;97227.77;1700827;84;27242;-60
2023/12/23 03:30:19;;;;;;;6.87;2.15;;;;;;;0.73;75.16;97226.43;1680859;85;25658;-59
2023/12/23 03:32:46;;;;;;;5.37;2.80;;;;;;;0.73;75.11;97231.22;1700853;84;25562;-61
2023/12/23 03:35:13;;;;;;;4.35;1.75;;;;;;;0.74;74.71;97239.41;1632697;85;25626;-61
2023/12/23 03:37:42;;;;;;;11.33;2.25;;;;;;;0.73;74.37;97228.56;1700816;84;25463;-60
2023/12/23 03:40:11;;;;;;;3.60;1.77;;;;;;;0.73;74.80;97232.55;1655452;85;28066;-60
2023/12/23 03:42:40;;;;;;;9.28;2.62;;;;;;;0.74;75.20;97243.41;1700851;84;25428;-60
2023/12/23 03:45:08;;;;;;;;;;;;;;;0.73;74.59;97248.52;1683461;85;25580;-60
2023/12/23 03:47:38;;;;;;;8.10;1.87;;;;;;;0.74;74.85;97247.95;1651840;86;26330;-60
2023/12/23 03:50:07;;;;;;;4.67;1.70;;;;;;;0.74;75.01;97253.28;1681057;85;25649;-60
2023/12/23 03:52:35;;;;;;;6.40;1.47;;;;;;;0.73;74.22;97263.15;1700924;84;26935;-60
2023/12/23 03:55:04;;;;;;;6.90;1.70;;;;;;;0.74;74.85;97263.36;1655217;85;25895;-59
2023/12/23 03:57:31;;;;;;;5.62;1.35;;;;;;;0.75;75.01;97265.49;1680985;85;25566;-61
2023/12/23 03:59:59;;;;;;;4.85;2.08;;;;;;;0.76;73.83;97262.27;1678485;84;26292;-60
2023/12/23 04:02:27;;;;;;;6.37;2.35;;;;;;;0.76;74.24;97275.02;1680933;85;25619;-61
2023/12/23 04:04:55;;;;;;;5.70;2.25;;;;;;;0.75;74.36;97282.79;1681626;85;27367;-61
2023/12/23 04:07:23;;;;;;;5.35;1.55;;;;;;;0.76;74.33;97285.66;1700699;84;25486;-61
2023/12/23 04:09:51;;;;;;;11.12;2.27;;;;;;;0.75;74.18;97288.11;1700782;84;25564;-63
2023/12/23 04:12:19;;;;;;;7.28;1.60;;;;;;;0.74;73.95;97291.86;1700747;84;25639;-61
2023/12/23 04:14:47;;;;;;;7.47;1.90;;;;;;;0.74;74.32;97293.96;1680957;85;25606;-61
2023/12/23 04:17:15;;;;;;;5.12;1.60;;;;;;;0.73;74.34;97309.70;1700773;84;27521;-61
2023/12/23 04:19:42;;;;;;;5.40;1.70;;;;;;;0.73;74.64;97308.38;1680846;85;26024;-62
2023/12/23 04:22:10;;;;;;;3.42;1.60;;;;;;;0.74;74.89;97316.58;1700752;82;25570;-62
2023/12/23 04:24:39;;;;;;;7.70;1.82;;;;;;;0.73;74.58;97309.70;1653357;86;25690;-61
2023/12/23 04:27:07;;;;;;;6.92;1.22;;;;;;;0.72;74.25;97324.66;1700465;84;25417;-62
2023/12/23 04:29:33;;;;;;;6.00;1.55;;;;;;;0.75;74.56;97329.34;1653301;86;27941;-62
2023/12/23 04:32:04;;;;;;;6.90;1.52;;;;;;;0.70;74.84;97320.20;1700196;84;25951;-62
2023/12/23 04:34:32;;;;;;;4.45;1.95;;;;;;;0.70;74.37;97328.19;1653364;86;25642;-62
2023/12/23 04:37:00;;;;;;;6.05;2.62;;;;;;;0.68;74.68;97327.17;1700223;84;26281;-62
2023/12/23 04:39:28;;;;;;;4.95;1.40;;;;;;;0.70;74.87;97346.81;1650721;86;25436;-64
2023/12/23 04:41:57;;;;;;;3.20;1.43;;;;;;;0.69;75.04;97344.67;1700554;84;27921;-63
2023/12/23 04:44:27;;;;;;;3.70;2.33;;;;;;;0.69;75.09;97347.34;1653248;86;25429;-64
2023/12/23 04:46:55;;;;;;;2.22;1.10;;;;;;;0.70;75.01;97347.59;1702916;84;25472;-62
2023/12/23 04:49:24;;;;;;;5.97;1.42;;;;;;;0.68;74.94;97355.10;1702804;84;25618;-61
2023/12/23 04:51:52;;;;;;;4.65;1.60;;;;;;;0.67;74.93;97364.17;1703006;84;32802;-62
2023/12/23 04:54:19;;;;;;;4.15;1.35;;;;;;;0.67;74.83;97351.42;1702944;84;28310;-61
2023/12/23 04:56:48;;;;;;;6.33;2.00;;;;;;;0.66;75.02;97363.92;1702672;84;25485;-62
2023/12/23 04:59:19;;;;;;;11.45;1.70;;;;;;;0.66;75.06;97359.94;1678382;84;25509;-64
2023/12/23 05:01:47;;;;;;;5.92;1.30;;;;;;;0.64;75.00;97366.13;1702809;84;26047;-63
2023/12/23 05:04:15;;;;;;;9.15;1.75;;;;;;;0.63;75.11;97353.14;1702825;84;25497;-62
2023/12/23 05:06:45;;;;;;;5.15;1.30;;;;;;;0.61;75.01;97387.25;1702950;84;33562;-61
2023/12/23 05:09:14;;;;;;;3.10;1.70;;;;;;;0.59;75.05;97399.54;1702968;84;25811;-61
2023/12/23 05:11:42;;;;;;;;;;;;;;;0.58;74.91;97383.89;1705425;84;25602;-63
2023/12/23 05:14:10;;;;;;;5.37;1.67;;;;;;;0.53;74.83;97393.61;1702847;84;25625;-61
2023/12/23 05:16:38;;;;;;;5.35;1.42;;;;;;;0.51;75.16;97393.67;1702775;84;25481;-64
2023/12/23 05:19:06;;;;;;;4.05;1.37;;;;;;;0.50;75.35;97395.55;1702799;84;27541;-62
2023/12/23 05:21:35;;;;;;;2.95;1.30;;;;;;;0.48;75.23;97415.04;1702928;84;25753;-61
2023/12/23 05:24:04;;;;;;;10.30;1.80;;;;;;;0.44;75.11;97401.34;1698076;84;25409;-62
2023/12/23 05:26:32;;;;;;;7.03;1.47;;;;;;;0.43;75.10;97411.77;1681006;85;25617;-61
2023/12/23 05:29:01;;;;;;;6.25;1.92;;;;;;;0.41;75.30;97424.56;1700770;84;25423;-62
2023/12/23 05:31:28;;;;;;;4.37;1.40;;;;;;;0.37;74.98;97423.08;1680855;85;28069;-61
2023/12/23 05:33:57;;;;;;;6.10;1.50;;;;;;;0.34;75.27;97422.36;1700688;84;25807;-63
2023/12/23 05:36:25;;;;;;;7.78;1.35;;;;;;;0.32;75.47;97443.17;1680974;85;25573;-69
2023/12/23 05:38:53;;;;;;;4.87;1.20;;;;;;;0.29;75.56;97439.80;1700708;84;25859;-62
2023/12/23 05:41:21;;;;;;;5.70;2.05;;;;;;;0.27;75.74;97432.69;1655334;85;25641;-62
2023/12/23 05:43:49;;;;;;;5.08;1.22;;;;;;;0.24;75.80;97444.73;1700791;84;27954;-62
2023/12/23 05:46:17;;;;;;;6.20;1.30;;;;;;;0.22;75.63;97448.23;1680831;85;25526;-62
2023/12/23 05:48:45;;;;;;;5.60;1.47;;;;;;;0.19;75.72;97455.52;1700791;84;25430;-63
2023/12/23 05:51:13;;;;;;;3.70;1.67;;;;;;;0.16;75.56;97460.89;1680837;85;25722;-62
2023/12/23 05:53:41;;;;;;;3.47;1.25;;;;;;;0.15;75.27;97457.21;1680941;85;25593;-60
2023/12/23 05:56:09;;;;;;;7.97;1.98;;;;;;;0.14;75.06;97455.11;1700753;84;27871;-61
2023/12/23 05:58:38;;;;;;;4.25;1.22;;;;;;;0.15;75.57;97471.84;1698070;84;25854;-61
2023/12/23 06:01:07;;;;;;;4.58;1.52;;;;;;;0.14;75.50;97481.69;1680906;85;25563;-61
2023/12/23 06:03:33;;;;;;;8.85;1.62;;;;;;;0.14;75.72;97491.00;1678548;84;26311;-60
2023/12/23 06:06:03;;;;;;;4.37;1.27;;;;;;;0.12;75.29;97483.88;1700813;84;25518;-61
2023/12/23 06:08:28;;;;;;;8.65;1.10;;;;;;;0.14;75.01;97491.55;1680494;85;27353;-61
2023/12/23 06:10:56;;;;;;;3.15;1.50;;;;;;;0.13;75.17;97482.77;1700779;84;25770;-62
2023/12/23 06:13:35;;;;;;;8.25;1.30;;;;;;;0.12;75.31;97497.17;1681025;85;25576;-62
2023/12/23 06:16:07;;;;;;;6.37;1.22;;;;;;;0.12;75.02;97487.87;1700888;84;25634;-62
2023/12/23 06:18:35;;;;;;;7.10;1.60;;;;;;;0.14;74.87;97487.56;1655501;85;25468;-61
2023/12/23 06:21:04;;;;;;;6.67;1.45;;;;;;;0.13;74.63;97494.73;1701002;84;27937;-62
2023/12/23 06:23:32;;;;;;;3.95;1.12;;;;;;;0.14;74.63;97503.52;1673495;84;25611;-60
2023/12/23 06:26:01;;;;;;;4.17;1.10;;;;;;;0.13;74.64;97513.90;1712789;83;25481;-62
2023/12/23 06:28:27;;;;;;;3.70;1.00;;;;;;;0.14;74.60;97518.13;1712751;83;26050;-62
2023/12/23 06:30:55;;;;;;;6.58;1.40;;;;;;;0.11;74.22;97515.53;1714112;83;25503;-62
2023/12/23 06:33:23;;;;;;;6.47;1.22;;;;;;;0.12;74.48;97530.92;1712746;83;27361;-62
2023/12/23 06:35:52;;;;;;;4.50;1.30;;;;;;;0.13;73.74;97516.55;1712950;83;25693;-62
2023/12/23 06:38:20;;;;;;;4.40;1.07;;;;;;;0.11;73.87;97523.50;1712709;83;25640;-62
2023/12/23 06:40:46;;;;;;;4.35;1.00;;;;;;;0.11;74.14;97530.70;1712757;83;26287;-63
2023/12/23 06:43:14;;;;;;;5.12;1.40;;;;;;;0.09;73.87;97525.70;1712815;83;25628;-62
2023/12/23 06:45:42;;;;;;;8.10;1.52;;;;;;;0.10;73.45;97531.78;1712717;83;28341;-62
2023/12/23 06:48:09;;;;;;;5.95;1.60;;;;;;;0.11;73.54;97536.02;1712722;83;25640;-62
2023/12/23 06:50:37;;;;;;;4.05;1.00;;;;;;;0.11;74.15;97538.13;1712873;83;25622;-63
2023/12/23 06:53:04;;;;;;;9.10;1.42;;;;;;;0.13;74.44;97544.47;1690419;83;26411;-62
2023/12/23 06:55:33;;;;;;;4.30;1.17;;;;;;;0.14;74.24;97552.69;1712816;83;25475;-62
2023/12/23 06:58:02;;;;;;;11.30;1.70;;;;;;;0.15;74.13;97552.39;1712890;83;28036;-61
2023/12/23 07:00:30;;;;;;;4.08;1.90;;;;;;;0.15;74.35;97567.01;1712648;83;25628;-63
2023/12/23 07:02:58;;;;;;;7.30;1.45;;;;;;;0.17;73.56;97552.05;1712814;83;25528;-62
2023/12/23 07:05:26;;;;;;;5.47;1.40;;;;;;;0.18;74.21;97573.02;1712726;83;25795;-62
2023/12/23 07:07:54;;;;;;;3.80;1.37;;;;;;;0.21;73.70;97574.84;1712817;83;25495;-62
2023/12/23 07:10:22;;;;;;;6.78;1.30;;;;;;;0.22;73.61;97562.55;1712745;83;27859;-62
2023/12/23 07:12:51;;;;;;;3.98;1.30;;;;;;;0.22;73.62;97571.86;1712843;83;26022;-62
2023/12/23 07:15:19;;;;;;;6.58;1.27;;;;;;;0.24;73.76;97559.06;1712768;83;25596;-62
2023/12/23 07:17:47;;;;;;;5.35;1.20;;;;;;;0.25;73.61;97580.55;1712675;83;26181;-62
2023/12/23 07:20:15;;;;;;;4.12;1.30;;;;;;;0.27;73.39;97578.92;1690245;83;25676;-62
2023/12/23 07:22:42;;;;;;;5.22;1.47;;;;;;;0.29;73.67;97581.52;1711590;83;27885;-62
2023/12/23 07:25:11;;;;;;;7.83;1.67;;;;;;;0.33;73.69;97593.66;1653264;86;25940;-62
2023/12/23 07:27:39;;;;;;;8.55;1.20;;;;;;;0.35;72.92;97584.27;1702823;84;25600;-62
2023/12/23 07:30:09;;;;;;;7.60;1.82;;;;;;;0.36;73.33;97585.06;1702775;84;25777;-62
2023/12/23 07:32:35;;;;;;;;;;;;;;;0.38;73.56;97582.88;1705366;84;25574;-62
2023/12/23 07:35:04;;;;;;;7.25;1.40;;;;;;;0.40;73.44;97587.89;1702802;84;27222;-62
2023/12/23 07:37:31;;;;;;;5.15;1.57;;;;;;;0.41;73.55;97582.80;1702814;84;25495;-62
2023/12/23 07:39:59;;;;;;;9.58;1.55;;;;;;;0.43;73.44;97595.27;1678351;84;25604;-63
2023/12/23 07:42:27;;;;;;;5.53;1.27;;;;;;;0.44;73.74;97606.13;1702911;84;25623;-62
2023/12/23 07:44:55;;;;;;;4.45;1.30;;;;;;;0.45;73.82;97597.06;1702850;84;25519;-62
2023/12/23 07:47:22;;;;;;;8.65;2.12;;;;;;;0.47;73.71;97600.97;1702791;84;27691;-62
2023/12/23 07:49:50;;;;;;;7.15;2.12;;;;;;;0.45;73.70;97605.04;1702811;84;25589;-62
2023/12/23 07:52:17;;;;;;;4.12;1.62;;;;;;;0.50;73.26;97615.54;1703029;84;29684;-60
2023/12/23 07:54:44;;;;;;;9.60;1.65;;;;;;;0.50;73.53;97612.33;1702774;84;26225;-64
2023/12/23 07:57:12;;;;;;;8.08;1.80;;;;;;;0.49;73.15;97632.02;1702765;84;25630;-62
2023/12/23 07:59:40;;;;;;;7.53;1.60;;;;;;;0.51;73.07;97625.88;1678388;84;28131;-62
2023/12/23 08:02:09;;;;;;;6.62;1.70;;;;;;;0.50;72.89;97627.51;1702856;84;25624;-61
2023/12/23 08:04:37;;;;;;;9.50;1.47;;;;;;;0.52;73.63;97630.09;1702783;84;25518;-62
2023/12/23 08:07:05;;;;;;;7.58;2.02;;;;;;;0.52;73.72;97624.77;1653072;84;25680;-63
2023/12/23 08:09:33;;;;;;;4.37;2.20;;;;;;;0.56;73.71;97626.27;1678906;84;25475;-62
2023/12/23 08:11:59;;;;;;;4.47;1.67;;;;;;;0.61;73.42;97638.09;1702815;84;27974;-61
2023/12/23 08:14:26;;;;;;;5.87;1.60;;;;;;;0.59;72.99;97634.96;1702731;84;25862;-62
2023/12/23 08:16:52;;;;;;;6.42;1.42;;;;;;;0.63;72.49;97640.45;1702785;84;25487;-59
2023/12/23 08:19:20;;;;;;;6.47;1.45;;;;;;;0.65;72.87;97628.98;1678366;84;25632;-62
2023/12/23 08:21:48;;;;;;;4.70;1.30;;;;;;;0.65;72.96;97652.36;1702857;84;25422;-62
2023/12/23 08:24:15;;;;;;;5.10;1.60;;;;;;;0.70;72.94;97641.58;1704640;84;28053;-60
2023/12/23 08:26:42;;;;;;;6.65;2.00;;;;;;;0.72;72.80;97654.58;1728871;83;25641;-62
2023/12/23 08:29:10;;;;;;;5.12;1.50;;;;;;;0.74;72.55;97659.81;1728892;83;25627;-62
2023/12/23 08:31:47;;;;;;;5.28;1.30;;;;;;;0.76;71.99;97651.53;1702621;83;26455;-61
2023/12/23 08:34:15;;;;;;;5.25;1.47;;;;;;;0.74;72.03;97646.52;1728975;83;25454;-61
2023/12/23 08:36:43;;;;;;;6.65;1.57;;;;;;;0.77;72.53;97635.81;1701874;83;27920;-62
2023/12/23 08:39:11;;;;;;;6.78;1.30;;;;;;;0.78;71.73;97641.35;1728796;83;25614;-62
2023/12/23 08:41:39;;;;;;;6.30;1.77;;;;;;;0.83;72.21;97652.41;1729046;83;25490;-62
2023/12/23 08:44:08;;;;;;;4.95;1.50;;;;;;;0.94;72.77;97652.38;1702054;83;25571;-63
2023/12/23 08:46:37;;;;;;;5.45;2.00;;;;;;;1.02;72.05;97658.27;1729077;83;25640;-63
2023/12/23 08:49:05;;;;;;;7.33;1.52;;;;;;;1.13;72.22;97654.75;1728891;83;27361;-62
2023/12/23 08:51:34;;;;;;;5.45;1.60;;;;;;;1.26;72.47;97657.03;1728894;83;25647;-62
2023/12/23 08:54:02;;;;;;;;;;;;;;;1.34;72.22;97662.14;1731489;83;25435;-61
2023/12/23 08:56:29;;;;;;;6.05;1.90;;;;;;;1.42;72.00;97664.03;1714203;83;25725;-62
2023/12/23 08:58:58;;;;;;;5.65;1.65;;;;;;;1.42;71.31;97663.48;1728898;83;25643;-62
2023/12/23 09:01:24;;;;;;;5.03;1.80;;;;;;;1.41;70.71;97678.44;1728891;83;27959;-62
2023/12/23 09:03:51;;;;;;;7.03;1.72;;;;;;;1.37;71.34;97664.19;1728796;83;25584;-61
2023/12/23 09:06:20;;;;;;;5.03;1.30;;;;;;;1.36;71.22;97671.38;1728888;83;25451;-61
2023/12/23 09:08:51;;;;;;;5.30;1.67;;;;;;;1.27;71.03;97671.36;1728974;83;32731;-63
2023/12/23 09:11:18;;;;;;;6.30;1.72;;;;;;;1.26;71.21;97685.80;1728607;83;25590;-62
2023/12/23 09:13:46;;;;;;;6.28;1.67;;;;;;;1.19;71.72;97689.47;1728889;83;27921;-63
2023/12/23 09:16:12;;;;;;;6.12;2.00;;;;;;;1.19;71.44;97686.00;1701896;83;25423;-62
2023/12/23 09:18:39;;;;;;;5.10;2.12;;;;;;;1.15;71.69;97678.41;1701992;83;25609;-63
2023/12/23 09:21:05;;;;;;;4.30;1.42;;;;;;;1.11;72.02;97687.02;1728875;83;25552;-63
2023/12/23 09:23:33;;;;;;;6.83;1.90;;;;;;;1.12;71.95;97690.45;1724938;82;25622;-63
2023/12/23 09:26:01;;;;;;;5.72;2.15;;;;;;;1.08;71.92;97695.61;1653299;86;27919;-63
2023/12/23 09:28:30;;;;;;;6.75;2.20;;;;;;;1.05;72.45;97696.78;1702671;84;25636;-62
2023/12/23 09:30:56;;;;;;;6.80;2.27;;;;;;;1.02;72.70;97692.88;1702722;84;25645;-63
2023/12/23 09:33:24;;;;;;;5.33;2.40;;;;;;;1.05;72.46;97706.10;1678327;84;26111;-63
2023/12/23 09:35:51;;;;;;;8.93;2.10;;;;;;;1.03;72.39;97684.34;1702728;84;25564;-63
2023/12/23 09:38:17;;;;;;;5.45;2.30;;;;;;;1.03;73.06;97688.33;1678362;84;27248;-63
2023/12/23 09:40:45;;;;;;;5.80;2.15;;;;;;;1.02;72.76;97688.08;1702729;84;25629;-62
2023/12/23 09:43:15;;;;;;;13.83;2.25;;;;;;;1.03;73.08;97670.47;1678427;84;25709;-62
2023/12/23 09:45:46;;;;;;;5.70;2.50;;;;;;;1.08;73.39;97666.88;1702921;84;27182;-62
2023/12/23 09:48:14;;;;;;;6.22;1.95;;;;;;;1.13;73.51;97665.96;1702989;84;25451;-61
2023/12/23 09:50:41;;;;;;;6.20;1.82;;;;;;;1.27;73.51;97664.70;1702951;84;27279;-62
2023/12/23 09:53:13;;;;;;;5.10;2.08;;;;;;;1.40;73.72;97686.98;1702803;84;25827;-62
2023/12/23 09:55:41;;;;;;;6.83;1.75;;;;;;;1.52;73.12;97677.60;1702964;84;25656;-62
2023/12/23 09:58:08;;;;;;;4.85;2.00;;;;;;;1.65;72.56;97672.64;1678372;84;26253;-63
2023/12/23 10:00:36;;;;;;;5.10;1.85;;;;;;;1.70;72.37;97682.38;1702930;84;25519;-63
2023/12/23 10:03:04;;;;;;;4.55;1.75;;;;;;;1.67;72.47;97669.91;1702932;84;27339;-63
2023/12/23 10:05:34;;;;;;;5.55;1.57;;;;;;;1.63;72.26;97672.95;1702780;84;25671;-63
2023/12/23 10:08:03;;;;;;;7.05;2.05;;;;;;;1.64;71.89;97664.43;1702981;84;25490;-62
2023/12/23 10:10:33;;;;;;;5.72;1.55;;;;;;;1.62;71.79;97662.64;1702866;84;26157;-62
2023/12/23 10:13:01;;;;;;;3.67;1.57;;;;;;;1.61;72.04;97672.48;1702968;84;25482;-62
2023/12/23 10:15:29;;;;;;;7.45;1.67;;;;;;;1.62;71.24;97644.76;1678415;84;28056;-62
2023/12/23 10:18:02;;;;;;;2.92;1.25;;;;;;;1.59;71.59;97653.37;1702919;84;25716;-62
2023/12/23 10:20:30;;;;;;;3.52;1.62;;;;;;;1.64;72.40;97639.12;1703016;84;25560;-62
2023/12/23 10:22:57;;;;;;;3.47;1.80;;;;;;;1.72;71.46;97641.00;1702967;84;26299;-61
2023/12/23 10:25:24;;;;;;;2.87;1.50;;;;;;;1.73;71.67;97643.10;1705555;84;25246;-63
2023/12/23 10:27:54;;;;;;;4.17;1.55;;;;;;;1.77;72.04;97660.02;1729007;83;27338;-62
2023/12/23 10:30:25;;;;;;;9.08;1.82;;;;;;;1.79;71.71;97657.29;1702171;83;25639;-62
2023/12/23 10:32:55;;;;;;;5.10;1.95;;;;;;;1.78;71.85;97658.94;1729082;83;25421;-62
2023/12/23 10:35:24;;;;;;;5.75;2.00;;;;;;;1.73;71.82;97661.20;1729041;83;25624;-63
2023/12/23 10:37:55;;;;;;;4.35;1.60;;;;;;;1.68;72.10;97664.80;1729133;83;25534;-63
2023/12/23 10:40:28;;;;;;;4.62;1.70;;;;;;;1.58;72.67;97665.12;1729076;83;27253;-62
2023/12/23 10:42:58;;;;;;;5.85;1.90;;;;;;;1.52;73.43;97665.05;1729072;83;25864;-62
2023/12/23 10:45:26;;;;;;;4.87;2.20;;;;;;;1.42;73.96;97667.47;1728271;83;26003;-61
2023/12/23 10:47:54;;;;;;;5.83;1.85;;;;;;;1.35;74.42;97661.05;1728156;83;26304;-62
2023/12/23 10:50:23;;;;;;;6.35;2.05;;;;;;;1.27;74.80;97670.03;1728223;83;25706;-63
2023/12/23 10:52:53;;;;;;;2.77;1.57;;;;;;;1.21;75.23;97652.66;1728304;83;27343;-62
2023/12/23 10:55:24;;;;;;;6.70;2.15;;;;;;;1.21;75.77;97653.19;1728153;83;25742;-63
2023/12/23 10:57:55;;;;;;;6.75;2.70;;;;;;;1.16;76.34;97655.47;1725384;83;25717;-63
2023/12/23 11:00:22;;;;;;;8.68;3.37;;;;;;;1.16;76.53;97650.67;1702021;83;25694;-62
2023/12/23 11:02:53;;;;;;;5.58;2.65;;;;;;;1.13;76.64;97642.77;1729027;83;25423;-62
2023/12/23 11:05:22;;;;;;;9.45;3.22;;;;;;;1.15;77.01;97646.45;1728197;83;27530;-62
2023/12/23 11:07:53;;;;;;;8.85;4.65;;;;;;;1.21;76.88;97659.31;1728939;83;25551;-62
2023/12/23 11:10:25;;;;;;;7.37;3.08;;;;;;;1.21;77.02;97649.99;1729087;83;25576;-63
2023/12/23 11:12:52;;;;;;;5.75;3.27;;;;;;;1.19;76.94;97647.39;1702361;83;26143;-60
2023/12/23 11:15:19;;;;;;;7.00;3.10;;;;;;;1.16;77.02;97648.81;1729048;83;25510;-61
2023/12/23 11:17:47;;;;;;;4.70;2.87;;;;;;;1.13;77.23;97655.31;1728961;83;27402;-61
2023/12/23 11:20:39;;;;;;;5.17;2.92;;;;;;;1.10;77.70;97660.69;1729056;83;25672;-62
2023/12/23 11:23:34;;;;;;;5.60;2.98;;;;;;;1.09;78.40;97651.94;1729057;83;25579;-62
2023/12/23 11:26:04;;;;;;;5.60;3.02;;;;;;;1.17;79.08;97662.91;1714428;83;25638;-62
2023/12/23 11:28:37;;;;;;;6.90;3.55;;;;;;;1.27;79.73;97663.94;1672141;85;25657;-61
2023/12/23 11:31:05;;;;;;;6.40;3.22;;;;;;;1.29;79.85;97674.53;1712785;83;27411;-63
2023/12/23 11:33:36;;;;;;;4.30;2.62;;;;;;;1.41;79.88;97661.13;1712684;83;25643;-62
2023/12/23 11:36:05;;;;;;;7.47;3.47;;;;;;;1.48;80.20;97676.89;1712805;83;25666;-62
2023/12/23 11:38:51;;;;;;;6.40;2.60;;;;;;;1.48;79.70;97668.90;1662584;83;26823;-63
2023/12/23 11:41:20;;;;;;;6.70;2.77;;;;;;;1.53;79.88;97669.27;1712911;83;25572;-62
2023/12/23 11:43:50;;;;;;;12.05;3.87;;;;;;;1.52;79.76;97673.05;1712724;83;28370;-63
2023/12/23 11:46:22;;;;;;;7.40;3.65;;;;;;;1.47;79.67;97675.31;1712629;83;25830;-63
2023/12/23 11:48:51;;;;;;;9.13;3.17;;;;;;;1.46;79.94;97687.08;1712754;83;25580;-61